sensor_id;sensor_type;location;lat;lon;timestamp;pressure;altitude;pressure_sealevel;temperature;humidity
77043;BME280;65975;53.936;27.540;2023-02-18T00:00:35;97589.50;;;2.36;81.24
77043;BME280;65975;53.936;27.540;2023-02-18T00:03:00;97576.13;;;2.20;81.30
77043;BME280;65975;53.936;27.540;2023-02-18T00:05:27;97552.19;;;2.14;81.72
77043;BME280;65975;53.936;27.540;2023-02-18T00:07:53;97563.28;;;2.16;81.03
77043;BME280;65975;53.936;27.540;2023-02-18T00:10:19;97532.72;;;1.97;81.74
77043;BME280;65975;53.936;27.540;2023-02-18T00:12:45;97532.72;;;1.99;82.29
77043;BME280;65975;53.936;27.540;2023-02-18T00:15:10;97557.38;;;2.11;82.04
77043;BME280;65975;53.936;27.540;2023-02-18T00:17:36;97517.06;;;2.07;82.14
77043;BME280;65975;53.936;27.540;2023-02-18T00:20:04;97510.38;;;1.96;82.10
77043;BME280;65975;53.936;27.540;2023-02-18T00:22:30;97508.41;;;2.08;80.98
77043;BME280;65975;53.936;27.540;2023-02-18T00:24:56;97496.41;;;2.07;81.33
77043;BME280;65975;53.936;27.540;2023-02-18T00:27:21;97520.69;;;1.98;82.51
77043;BME280;65975;53.936;27.540;2023-02-18T00:29:46;97501.81;;;2.31;81.36
77043;BME280;65975;53.936;27.540;2023-02-18T00:32:12;97509.69;;;2.27;81.38
77043;BME280;65975;53.936;27.540;2023-02-18T00:34:37;97493.25;;;2.29;81.16
77043;BME280;65975;53.936;27.540;2023-02-18T00:37:03;97478.78;;;2.22;81.40
77043;BME280;65975;53.936;27.540;2023-02-18T00:39:29;97456.41;;;2.23;81.08
77043;BME280;65975;53.936;27.540;2023-02-18T00:41:55;97463.75;;;2.39;80.84
77043;BME280;65975;53.936;27.540;2023-02-18T00:44:21;97454.84;;;2.17;81.37
77043;BME280;65975;53.936;27.540;2023-02-18T00:46:46;97454.84;;;2.17;80.84
77043;BME280;65975;53.936;27.540;2023-02-18T00:49:14;97450.50;;;2.18;81.32
77043;BME280;65975;53.936;27.540;2023-02-18T00:51:41;97433.50;;;2.09;81.80
77043;BME280;65975;53.936;27.540;2023-02-18T00:54:06;97427.19;;;2.21;81.17
77043;BME280;65975;53.936;27.540;2023-02-18T00:56:32;97411.50;;;2.28;81.02
77043;BME280;65975;53.936;27.540;2023-02-18T00:58:57;97420.28;;;2.21;81.50
77043;BME280;65975;53.936;27.540;2023-02-18T01:01:23;97353.03;;;1.93;81.23
77043;BME280;65975;53.936;27.540;2023-02-18T01:03:49;97371.66;;;2.06;81.31
77043;BME280;65975;53.936;27.540;2023-02-18T01:06:15;97395.84;;;2.34;81.27
77043;BME280;65975;53.936;27.540;2023-02-18T01:08:41;97338.53;;;2.22;80.65
77043;BME280;65975;53.936;27.540;2023-02-18T01:11:09;97371.53;;;2.43;80.99
77043;BME280;65975;53.936;27.540;2023-02-18T01:13:35;97377.44;;;2.47;81.37
77043;BME280;65975;53.936;27.540;2023-02-18T01:16:00;97357.44;;;2.55;81.00
77043;BME280;65975;53.936;27.540;2023-02-18T01:18:26;97335.78;;;2.28;81.42
77043;BME280;65975;53.936;27.540;2023-02-18T01:20:52;97343.63;;;2.56;81.44
77043;BME280;65975;53.936;27.540;2023-02-18T01:23:18;97337.91;;;2.45;81.09
77043;BME280;65975;53.936;27.540;2023-02-18T01:25:43;97299.44;;;2.34;81.68
77043;BME280;65975;53.936;27.540;2023-02-18T01:28:10;97331.53;;;2.58;81.32
77043;BME280;65975;53.936;27.540;2023-02-18T01:30:36;97259.34;;;2.22;81.47
77043;BME280;65975;53.936;27.540;2023-02-18T01:33:02;97289.03;;;2.38;81.61
77043;BME280;65975;53.936;27.540;2023-02-18T01:35:27;97310.53;;;2.39;82.37
77043;BME280;65975;53.936;27.540;2023-02-18T01:37:52;97306.00;;;2.76;81.62
77043;BME280;65975;53.936;27.540;2023-02-18T01:40:21;97299.00;;;2.51;81.89
77043;BME280;65975;53.936;27.540;2023-02-18T01:42:47;97311.81;;;2.85;81.37
77043;BME280;65975;53.936;27.540;2023-02-18T01:48:14;97303.44;;;2.76;81.42
77043;BME280;65975;53.936;27.540;2023-02-18T01:50:48;97255.84;;;2.54;80.85
77043;BME280;65975;53.936;27.540;2023-02-18T01:53:19;97293.53;;;2.91;81.44
77043;BME280;65975;53.936;27.540;2023-02-18T01:55:47;97244.63;;;2.55;81.37
77043;BME280;65975;53.936;27.540;2023-02-18T01:58:13;97267.75;;;2.88;81.45
77043;BME280;65975;53.936;27.540;2023-02-18T02:00:40;97252.97;;;2.93;81.32
77043;BME280;65975;53.936;27.540;2023-02-18T02:03:06;97167.53;;;2.69;80.23
77043;BME280;65975;53.936;27.540;2023-02-18T02:05:33;97269.97;;;3.00;81.30
77043;BME280;65975;53.936;27.540;2023-02-18T02:08:00;97234.81;;;2.94;81.08
77043;BME280;65975;53.936;27.540;2023-02-18T02:16:17;97250.81;;;3.07;81.76
77043;BME280;65975;53.936;27.540;2023-02-18T02:27:29;97206.75;;;3.10;82.36
77043;BME280;65975;53.936;27.540;2023-02-18T02:44:57;97226.66;;;3.34;82.46
77043;BME280;65975;53.936;27.540;2023-02-18T02:47:40;97158.63;;;3.06;83.13
77043;BME280;65975;53.936;27.540;2023-02-18T02:50:25;97200.09;;;3.03;84.10
77043;BME280;65975;53.936;27.540;2023-02-18T02:52:55;97205.91;;;3.36;83.78
77043;BME280;65975;53.936;27.540;2023-02-18T02:55:21;97207.75;;;3.32;83.98
77043;BME280;65975;53.936;27.540;2023-02-18T02:57:54;97201.81;;;3.30;83.09
77043;BME280;65975;53.936;27.540;2023-02-18T03:01:11;97214.81;;;3.53;82.69
77043;BME280;65975;53.936;27.540;2023-02-18T03:03:38;97223.81;;;3.42;83.42
77043;BME280;65975;53.936;27.540;2023-02-18T03:12:02;97214.66;;;3.32;84.26
77043;BME280;65975;53.936;27.540;2023-02-18T03:17:11;97189.31;;;3.16;85.58
77043;BME280;65975;53.936;27.540;2023-02-18T03:19:46;97143.63;;;2.91;85.44
77043;BME280;65975;53.936;27.540;2023-02-18T03:22:24;97186.66;;;3.18;84.78
77043;BME280;65975;53.936;27.540;2023-02-18T03:24:53;97199.91;;;3.35;84.89
77043;BME280;65975;53.936;27.540;2023-02-18T03:27:30;97197.78;;;3.46;84.85
77043;BME280;65975;53.936;27.540;2023-02-18T03:30:09;97189.44;;;3.38;84.80
77043;BME280;65975;53.936;27.540;2023-02-18T03:32:36;97205.31;;;3.54;84.53
77043;BME280;65975;53.936;27.540;2023-02-18T03:35:12;97201.03;;;3.78;84.38
77043;BME280;65975;53.936;27.540;2023-02-18T03:38:14;97198.28;;;3.82;84.38
77043;BME280;65975;53.936;27.540;2023-02-18T03:40:41;97167.16;;;3.84;83.26
77043;BME280;65975;53.936;27.540;2023-02-18T03:43:08;97185.53;;;3.76;84.06
77043;BME280;65975;53.936;27.540;2023-02-18T03:45:33;97185.06;;;3.90;83.96
77043;BME280;65975;53.936;27.540;2023-02-18T03:47:59;97172.66;;;3.99;84.06
77043;BME280;65975;53.936;27.540;2023-02-18T03:50:24;97141.28;;;3.59;83.01
77043;BME280;65975;53.936;27.540;2023-02-18T03:52:49;97169.88;;;3.81;84.06
77043;BME280;65975;53.936;27.540;2023-02-18T03:55:15;97153.69;;;3.99;83.64
77043;BME280;65975;53.936;27.540;2023-02-18T03:57:41;97167.88;;;4.12;83.24
77043;BME280;65975;53.936;27.540;2023-02-18T04:00:07;97164.03;;;3.99;83.53
77043;BME280;65975;53.936;27.540;2023-02-18T04:02:33;97157.38;;;3.92;84.29
77043;BME280;65975;53.936;27.540;2023-02-18T04:04:58;97154.47;;;4.01;83.65
77043;BME280;65975;53.936;27.540;2023-02-18T04:07:24;97130.47;;;3.96;83.84
77043;BME280;65975;53.936;27.540;2023-02-18T04:09:50;97153.63;;;4.24;83.79
77043;BME280;65975;53.936;27.540;2023-02-18T04:12:15;97155.50;;;4.20;83.60
77043;BME280;65975;53.936;27.540;2023-02-18T04:14:41;97134.38;;;4.08;83.79
77043;BME280;65975;53.936;27.540;2023-02-18T04:17:06;97136.34;;;4.01;83.72
77043;BME280;65975;53.936;27.540;2023-02-18T04:19:32;97144.44;;;3.69;83.96
77043;BME280;65975;53.936;27.540;2023-02-18T04:21:57;97134.41;;;3.83;84.23
77043;BME280;65975;53.936;27.540;2023-02-18T04:24:23;97142.88;;;4.11;83.70
77043;BME280;65975;53.936;27.540;2023-02-18T04:26:48;97126.94;;;3.98;83.48
77043;BME280;65975;53.936;27.540;2023-02-18T04:29:14;97131.53;;;3.90;84.07
77043;BME280;65975;53.936;27.540;2023-02-18T04:31:39;97129.78;;;3.68;84.22
77043;BME280;65975;53.936;27.540;2023-02-18T04:34:05;97151.13;;;3.97;84.04
77043;BME280;65975;53.936;27.540;2023-02-18T04:36:30;97148.59;;;3.96;83.65
77043;BME280;65975;53.936;27.540;2023-02-18T04:38:56;97150.63;;;3.88;84.18
77043;BME280;65975;53.936;27.540;2023-02-18T04:41:21;97122.03;;;3.91;84.04
77043;BME280;65975;53.936;27.540;2023-02-18T04:43:46;97140.22;;;4.13;83.62
77043;BME280;65975;53.936;27.540;2023-02-18T04:46:12;97101.44;;;3.88;83.91
77043;BME280;65975;53.936;27.540;2023-02-18T04:48:37;97137.59;;;4.14;83.83
77043;BME280;65975;53.936;27.540;2023-02-18T04:51:03;97127.72;;;4.24;83.42
77043;BME280;65975;53.936;27.540;2023-02-18T04:53:29;97119.88;;;4.02;83.57
77043;BME280;65975;53.936;27.540;2023-02-18T04:55:54;97133.63;;;4.04;83.53
77043;BME280;65975;53.936;27.540;2023-02-18T04:58:21;97133.97;;;3.95;84.18
77043;BME280;65975;53.936;27.540;2023-02-18T05:00:46;97104.53;;;3.97;83.80
77043;BME280;65975;53.936;27.540;2023-02-18T05:03:13;97122.69;;;3.96;83.56
77043;BME280;65975;53.936;27.540;2023-02-18T05:05:38;97133.13;;;3.94;83.99
77043;BME280;65975;53.936;27.540;2023-02-18T05:08:06;97077.97;;;3.69;83.24
77043;BME280;65975;53.936;27.540;2023-02-18T05:10:33;97123.50;;;3.98;83.47
77043;BME280;65975;53.936;27.540;2023-02-18T05:12:59;97025.53;;;3.41;83.39
77043;BME280;65975;53.936;27.540;2023-02-18T05:15:25;97090.28;;;3.86;83.58
77043;BME280;65975;53.936;27.540;2023-02-18T05:17:50;97087.06;;;4.02;83.11
77043;BME280;65975;53.936;27.540;2023-02-18T05:20:16;97116.31;;;4.06;83.15
77043;BME280;65975;53.936;27.540;2023-02-18T05:22:41;97129.69;;;3.94;83.45
77043;BME280;65975;53.936;27.540;2023-02-18T05:25:07;97093.34;;;3.74;83.16
77043;BME280;65975;53.936;27.540;2023-02-18T05:27:33;97093.72;;;3.86;83.39
77043;BME280;65975;53.936;27.540;2023-02-18T05:29:58;97097.72;;;3.72;83.32
77043;BME280;65975;53.936;27.540;2023-02-18T05:32:23;97115.78;;;3.96;83.14
77043;BME280;65975;53.936;27.540;2023-02-18T05:34:49;97077.84;;;3.72;82.61
77043;BME280;65975;53.936;27.540;2023-02-18T05:37:14;97069.91;;;3.77;82.56
77043;BME280;65975;53.936;27.540;2023-02-18T05:39:43;97063.19;;;3.73;82.41
77043;BME280;65975;53.936;27.540;2023-02-18T05:42:08;97091.59;;;3.97;82.16
77043;BME280;65975;53.936;27.540;2023-02-18T05:44:34;97109.09;;;4.14;82.23
77043;BME280;65975;53.936;27.540;2023-02-18T05:47:02;97114.50;;;4.08;82.63
77043;BME280;65975;53.936;27.540;2023-02-18T05:49:29;97108.63;;;3.80;82.64
77043;BME280;65975;53.936;27.540;2023-02-18T05:51:55;97110.22;;;3.84;83.01
77043;BME280;65975;53.936;27.540;2023-02-18T05:54:21;97113.50;;;3.89;83.10
77043;BME280;65975;53.936;27.540;2023-02-18T05:56:46;97109.53;;;4.02;82.68
77043;BME280;65975;53.936;27.540;2023-02-18T05:59:12;97114.88;;;3.97;82.42
77043;BME280;65975;53.936;27.540;2023-02-18T06:01:44;97121.59;;;3.80;82.11
77043;BME280;65975;53.936;27.540;2023-02-18T06:04:15;97112.44;;;3.94;82.19
77043;BME280;65975;53.936;27.540;2023-02-18T06:06:41;97093.06;;;3.81;82.69
77043;BME280;65975;53.936;27.540;2023-02-18T06:09:07;97103.41;;;3.81;82.58
77043;BME280;65975;53.936;27.540;2023-02-18T06:11:34;97109.03;;;3.92;82.58
77043;BME280;65975;53.936;27.540;2023-02-18T06:14:00;97095.28;;;3.90;82.53
77043;BME280;65975;53.936;27.540;2023-02-18T06:16:28;97117.88;;;4.10;82.53
77043;BME280;65975;53.936;27.540;2023-02-18T06:18:54;97098.69;;;3.92;81.85
77043;BME280;65975;53.936;27.540;2023-02-18T06:21:20;97090.53;;;3.80;81.94
77043;BME280;65975;53.936;27.540;2023-02-18T06:23:46;97096.66;;;4.00;82.31
77043;BME280;65975;53.936;27.540;2023-02-18T06:26:12;97064.13;;;3.93;82.02
77043;BME280;65975;53.936;27.540;2023-02-18T06:28:38;97083.88;;;3.73;82.51
77043;BME280;65975;53.936;27.540;2023-02-18T06:31:05;97099.31;;;3.99;82.23
77043;BME280;65975;53.936;27.540;2023-02-18T06:33:30;97070.75;;;3.77;82.86
77043;BME280;65975;53.936;27.540;2023-02-18T06:36:01;97104.34;;;4.02;82.62
77043;BME280;65975;53.936;27.540;2023-02-18T06:38:27;97039.78;;;3.76;82.52
77043;BME280;65975;53.936;27.540;2023-02-18T06:40:53;97073.97;;;4.07;82.15
77043;BME280;65975;53.936;27.540;2023-02-18T06:43:20;97118.38;;;3.96;82.27
77043;BME280;65975;53.936;27.540;2023-02-18T06:45:46;97131.50;;;3.92;82.41
77043;BME280;65975;53.936;27.540;2023-02-18T06:48:12;97119.41;;;3.92;82.68
77043;BME280;65975;53.936;27.540;2023-02-18T06:50:37;97123.28;;;4.04;83.41
77043;BME280;65975;53.936;27.540;2023-02-18T06:53:03;97116.88;;;4.14;82.93
77043;BME280;65975;53.936;27.540;2023-02-18T06:55:28;97124.63;;;3.91;82.61
77043;BME280;65975;53.936;27.540;2023-02-18T06:57:54;97097.88;;;3.67;83.28
77043;BME280;65975;53.936;27.540;2023-02-18T07:00:20;97125.13;;;3.77;83.85
77043;BME280;65975;53.936;27.540;2023-02-18T07:02:46;97110.69;;;3.70;84.20
77043;BME280;65975;53.936;27.540;2023-02-18T07:05:12;97120.91;;;3.98;84.75
77043;BME280;65975;53.936;27.540;2023-02-18T07:07:38;97118.25;;;3.76;83.84
77043;BME280;65975;53.936;27.540;2023-02-18T07:10:04;97080.97;;;3.57;84.48
77043;BME280;65975;53.936;27.540;2023-02-18T07:12:30;97113.59;;;3.63;83.75
77043;BME280;65975;53.936;27.540;2023-02-18T07:14:55;97127.16;;;3.69;83.57
77043;BME280;65975;53.936;27.540;2023-02-18T07:17:21;97123.50;;;3.75;84.19
77043;BME280;65975;53.936;27.540;2023-02-18T07:19:46;97112.88;;;3.57;83.72
77043;BME280;65975;53.936;27.540;2023-02-18T07:22:12;97120.78;;;3.78;84.89
77043;BME280;65975;53.936;27.540;2023-02-18T07:24:38;97115.25;;;3.63;84.08
77043;BME280;65975;53.936;27.540;2023-02-18T07:27:03;97125.06;;;3.79;83.94
77043;BME280;65975;53.936;27.540;2023-02-18T07:29:29;97092.41;;;3.51;83.42
77043;BME280;65975;53.936;27.540;2023-02-18T07:31:56;97127.78;;;3.76;83.44
77043;BME280;65975;53.936;27.540;2023-02-18T07:34:21;97132.88;;;3.77;83.46
77043;BME280;65975;53.936;27.540;2023-02-18T07:36:47;97133.28;;;3.67;83.29
77043;BME280;65975;53.936;27.540;2023-02-18T07:39:12;97063.13;;;3.26;83.48
77043;BME280;65975;53.936;27.540;2023-02-18T07:41:38;97129.00;;;3.66;83.73
77043;BME280;65975;53.936;27.540;2023-02-18T07:44:04;97135.69;;;3.71;83.73
77043;BME280;65975;53.936;27.540;2023-02-18T07:46:29;97127.56;;;3.82;83.49
77043;BME280;65975;53.936;27.540;2023-02-18T07:48:58;97106.53;;;3.66;83.09
77043;BME280;65975;53.936;27.540;2023-02-18T07:51:23;97083.88;;;3.49;83.24
77043;BME280;65975;53.936;27.540;2023-02-18T07:53:49;97123.78;;;3.90;82.82
77043;BME280;65975;53.936;27.540;2023-02-18T07:56:14;97085.03;;;3.64;82.51
77043;BME280;65975;53.936;27.540;2023-02-18T07:58:40;97125.75;;;3.84;82.71
77043;BME280;65975;53.936;27.540;2023-02-18T08:01:08;97127.84;;;3.97;82.49
77043;BME280;65975;53.936;27.540;2023-02-18T08:03:35;97133.81;;;3.99;81.83
77043;BME280;65975;53.936;27.540;2023-02-18T08:06:02;97119.69;;;4.08;82.03
77043;BME280;65975;53.936;27.540;2023-02-18T08:08:29;97139.72;;;4.03;81.46
77043;BME280;65975;53.936;27.540;2023-02-18T08:11:00;97118.38;;;3.96;82.34
77043;BME280;65975;53.936;27.540;2023-02-18T08:13:31;97119.97;;;4.00;81.20
77043;BME280;65975;53.936;27.540;2023-02-18T08:15:57;97118.75;;;4.09;81.47
77043;BME280;65975;53.936;27.540;2023-02-18T08:18:24;97124.72;;;4.11;81.59
77043;BME280;65975;53.936;27.540;2023-02-18T08:20:52;97093.09;;;4.03;81.78
77043;BME280;65975;53.936;27.540;2023-02-18T08:23:19;97084.66;;;3.98;81.01
77043;BME280;65975;53.936;27.540;2023-02-18T08:25:46;97087.16;;;4.01;80.45
77043;BME280;65975;53.936;27.540;2023-02-18T08:28:12;97128.22;;;4.33;81.20
77043;BME280;65975;53.936;27.540;2023-02-18T08:30:38;97121.06;;;4.40;80.02
77043;BME280;65975;53.936;27.540;2023-02-18T08:33:03;97122.28;;;4.30;80.45
77043;BME280;65975;53.936;27.540;2023-02-18T08:35:30;97120.56;;;4.30;80.84
77043;BME280;65975;53.936;27.540;2023-02-18T08:37:55;97108.34;;;4.34;81.14
77043;BME280;65975;53.936;27.540;2023-02-18T08:40:21;97115.63;;;4.46;79.75
77043;BME280;65975;53.936;27.540;2023-02-18T08:42:46;97121.28;;;4.56;80.22
77043;BME280;65975;53.936;27.540;2023-02-18T08:45:12;97131.88;;;4.28;79.72
77043;BME280;65975;53.936;27.540;2023-02-18T08:47:37;97118.91;;;4.28;80.50
77043;BME280;65975;53.936;27.540;2023-02-18T08:50:04;97126.41;;;4.35;80.43
77043;BME280;65975;53.936;27.540;2023-02-18T08:52:30;97064.41;;;3.86;80.08
77043;BME280;65975;53.936;27.540;2023-02-18T08:54:55;97134.41;;;4.29;80.66
77043;BME280;65975;53.936;27.540;2023-02-18T08:57:21;97139.25;;;4.15;80.25
77043;BME280;65975;53.936;27.540;2023-02-18T08:59:46;97136.47;;;4.21;80.62
77043;BME280;65975;53.936;27.540;2023-02-18T09:02:13;97126.31;;;4.15;80.90
77043;BME280;65975;53.936;27.540;2023-02-18T09:04:38;97132.47;;;4.13;80.75
77043;BME280;65975;53.936;27.540;2023-02-18T09:07:04;97119.75;;;4.07;80.80
77043;BME280;65975;53.936;27.540;2023-02-18T09:09:29;97156.19;;;4.24;81.57
77043;BME280;65975;53.936;27.540;2023-02-18T09:11:55;97143.88;;;4.07;81.37
77043;BME280;65975;53.936;27.540;2023-02-18T09:14:21;97145.91;;;3.99;81.39
77043;BME280;65975;53.936;27.540;2023-02-18T09:16:46;97132.16;;;3.97;80.86
77043;BME280;65975;53.936;27.540;2023-02-18T09:19:12;97150.72;;;3.85;81.45
77043;BME280;65975;53.936;27.540;2023-02-18T09:21:38;97044.38;;;3.19;81.68
77043;BME280;65975;53.936;27.540;2023-02-18T09:24:03;97141.63;;;3.75;81.91
77043;BME280;65975;53.936;27.540;2023-02-18T09:26:29;97148.38;;;3.79;82.14
77043;BME280;65975;53.936;27.540;2023-02-18T09:28:55;97150.09;;;3.78;81.73
77043;BME280;65975;53.936;27.540;2023-02-18T09:31:23;97132.75;;;3.82;81.35
77043;BME280;65975;53.936;27.540;2023-02-18T09:34:00;97144.44;;;3.92;80.56
77043;BME280;65975;53.936;27.540;2023-02-18T09:36:26;97045.59;;;3.34;80.95
77043;BME280;65975;53.936;27.540;2023-02-18T09:38:52;97144.34;;;3.95;79.69
77043;BME280;65975;53.936;27.540;2023-02-18T09:44:02;97151.47;;;4.12;80.12
77043;BME280;65975;53.936;27.540;2023-02-18T09:46:36;97141.84;;;4.15;79.85
77043;BME280;65975;53.936;27.540;2023-02-18T09:49:06;97132.00;;;4.01;79.17
77043;BME280;65975;53.936;27.540;2023-02-18T09:51:33;97136.22;;;4.04;79.61
77043;BME280;65975;53.936;27.540;2023-02-18T09:53:58;97121.84;;;3.95;79.67
77043;BME280;65975;53.936;27.540;2023-02-18T09:56:31;97128.81;;;3.95;80.51
77043;BME280;65975;53.936;27.540;2023-02-18T09:59:02;97118.50;;;3.93;79.73
77043;BME280;65975;53.936;27.540;2023-02-18T10:01:33;97001.97;;;3.00;80.63
77043;BME280;65975;53.936;27.540;2023-02-18T10:04:16;97135.78;;;3.93;80.64
77043;BME280;65975;53.936;27.540;2023-02-18T10:06:45;97112.88;;;3.82;80.18
77043;BME280;65975;53.936;27.540;2023-02-18T10:09:24;97119.13;;;4.00;80.60
77043;BME280;65975;53.936;27.540;2023-02-18T10:11:55;97117.88;;;3.87;80.18
77043;BME280;65975;53.936;27.540;2023-02-18T10:14:21;97120.25;;;3.93;80.38
77043;BME280;65975;53.936;27.540;2023-02-18T10:16:48;97127.22;;;3.91;80.62
77043;BME280;65975;53.936;27.540;2023-02-18T10:21:47;97106.16;;;3.77;79.99
77043;BME280;65975;53.936;27.540;2023-02-18T10:24:27;97135.31;;;3.82;80.27
77043;BME280;65975;53.936;27.540;2023-02-18T10:26:54;97132.50;;;3.88;80.50
77043;BME280;65975;53.936;27.540;2023-02-18T10:29:21;97131.63;;;3.89;80.59
77043;BME280;65975;53.936;27.540;2023-02-18T10:34:42;97143.09;;;3.82;80.79
77043;BME280;65975;53.936;27.540;2023-02-18T10:46:00;97148.09;;;3.86;80.96
77043;BME280;65975;53.936;27.540;2023-02-18T10:51:31;97126.28;;;3.93;80.76
77043;BME280;65975;53.936;27.540;2023-02-18T10:53:58;97129.34;;;4.03;80.88
77043;BME280;65975;53.936;27.540;2023-02-18T10:56:38;97131.44;;;3.93;80.32
77043;BME280;65975;53.936;27.540;2023-02-18T10:59:22;97138.63;;;3.85;80.87
77043;BME280;65975;53.936;27.540;2023-02-18T11:02:17;97134.03;;;3.93;81.28
77043;BME280;65975;53.936;27.540;2023-02-18T11:04:44;97148.44;;;4.00;80.75
77043;BME280;65975;53.936;27.540;2023-02-18T11:07:32;97137.72;;;4.10;79.81
77043;BME280;65975;53.936;27.540;2023-02-18T11:10:14;97132.56;;;4.10;80.04
77043;BME280;65975;53.936;27.540;2023-02-18T11:12:49;97141.78;;;4.17;79.33
77043;BME280;65975;53.936;27.540;2023-02-18T11:15:24;97142.16;;;4.08;79.50
77043;BME280;65975;53.936;27.540;2023-02-18T11:17:51;97146.41;;;4.09;79.23
77043;BME280;65975;53.936;27.540;2023-02-18T11:20:34;97139.88;;;4.22;79.55
77043;BME280;65975;53.936;27.540;2023-02-18T11:25:38;97150.75;;;4.31;78.36
77043;BME280;65975;53.936;27.540;2023-02-18T11:30:44;97141.19;;;4.33;78.36
77043;BME280;65975;53.936;27.540;2023-02-18T11:33:20;97145.22;;;4.17;77.74
77043;BME280;65975;53.936;27.540;2023-02-18T11:38:32;97155.34;;;4.47;77.76
77043;BME280;65975;53.936;27.540;2023-02-18T11:41:12;97032.53;;;3.62;77.21
77043;BME280;65975;53.936;27.540;2023-02-18T11:43:45;97162.66;;;4.35;78.45
77043;BME280;65975;53.936;27.540;2023-02-18T11:46:21;97164.94;;;4.21;78.33
77043;BME280;65975;53.936;27.540;2023-02-18T11:48:48;97162.41;;;4.20;78.73
77043;BME280;65975;53.936;27.540;2023-02-18T11:51:24;97171.19;;;4.16;79.35
77043;BME280;65975;53.936;27.540;2023-02-18T11:53:57;97176.22;;;4.42;79.55
77043;BME280;65975;53.936;27.540;2023-02-18T11:56:25;97168.41;;;4.43;79.07
77043;BME280;65975;53.936;27.540;2023-02-18T11:58:51;97183.63;;;4.53;78.41
77043;BME280;65975;53.936;27.540;2023-02-18T12:01:27;97172.69;;;4.45;77.73
77043;BME280;65975;53.936;27.540;2023-02-18T12:04:12;97179.91;;;4.36;78.15
77043;BME280;65975;53.936;27.540;2023-02-18T12:09:19;97182.94;;;4.48;78.37
77043;BME280;65975;53.936;27.540;2023-02-18T12:11:51;97197.41;;;4.30;79.20
77043;BME280;65975;53.936;27.540;2023-02-18T12:14:21;97182.84;;;4.27;79.04
77043;BME280;65975;53.936;27.540;2023-02-18T12:46:14;97138.94;;;3.76;79.37
77043;BME280;65975;53.936;27.540;2023-02-18T12:54:31;97214.47;;;4.12;79.04
77043;BME280;65975;53.936;27.540;2023-02-18T12:57:18;97122.16;;;3.63;78.90
77043;BME280;65975;53.936;27.540;2023-02-18T13:15:42;97230.31;;;3.80;78.88
77043;BME280;65975;53.936;27.540;2023-02-18T13:18:39;97222.84;;;3.71;79.31
77043;BME280;65975;53.936;27.540;2023-02-18T13:21:10;97220.03;;;3.77;80.92
77043;BME280;65975;53.936;27.540;2023-02-18T13:23:48;97127.47;;;3.10;80.87
77043;BME280;65975;53.936;27.540;2023-02-18T13:26:17;97231.88;;;3.59;80.81
77043;BME280;65975;53.936;27.540;2023-02-18T13:29:08;97160.97;;;3.13;80.33
77043;BME280;65975;53.936;27.540;2023-02-18T13:40:31;97243.53;;;2.92;84.54
77043;BME280;65975;53.936;27.540;2023-02-18T13:48:46;97244.22;;;2.69;84.57
77043;BME280;65975;53.936;27.540;2023-02-18T13:51:16;97261.00;;;2.84;84.72
77043;BME280;65975;53.936;27.540;2023-02-18T13:53:49;97153.47;;;1.93;84.78
77043;BME280;65975;53.936;27.540;2023-02-18T13:58:48;97266.31;;;3.07;84.11
77043;BME280;65975;53.936;27.540;2023-02-18T14:03:55;97277.69;;;3.01;83.17
77043;BME280;65975;53.936;27.540;2023-02-18T14:06:27;97282.69;;;3.07;82.66
77043;BME280;65975;53.936;27.540;2023-02-18T14:11:45;97280.41;;;3.25;81.47
77043;BME280;65975;53.936;27.540;2023-02-18T14:19:52;97301.19;;;3.21;80.52
77043;BME280;65975;53.936;27.540;2023-02-18T14:24:56;97283.19;;;3.18;79.81
77043;BME280;65975;53.936;27.540;2023-02-18T14:27:25;97270.38;;;3.15;79.23
77043;BME280;65975;53.936;27.540;2023-02-18T14:29:51;97214.03;;;2.71;78.65
77043;BME280;65975;53.936;27.540;2023-02-18T14:32:18;97303.81;;;3.20;77.89
77043;BME280;65975;53.936;27.540;2023-02-18T14:37:55;97310.88;;;3.15;76.78
77043;BME280;65975;53.936;27.540;2023-02-18T14:46:09;97298.56;;;3.23;75.79
77043;BME280;65975;53.936;27.540;2023-02-18T14:48:42;97296.53;;;3.33;75.45
77043;BME280;65975;53.936;27.540;2023-02-18T14:51:14;97317.19;;;3.34;75.01
77043;BME280;65975;53.936;27.540;2023-02-18T14:53:43;97301.09;;;3.25;75.96
77043;BME280;65975;53.936;27.540;2023-02-18T14:56:12;97310.69;;;3.21;76.73
77043;BME280;65975;53.936;27.540;2023-02-18T14:58:42;97293.94;;;3.05;76.88
77043;BME280;65975;53.936;27.540;2023-02-18T15:01:29;97305.44;;;3.24;76.96
77043;BME280;65975;53.936;27.540;2023-02-18T15:03:56;97304.44;;;3.28;77.28
77043;BME280;65975;53.936;27.540;2023-02-18T15:06:32;97280.31;;;3.00;76.67
77043;BME280;65975;53.936;27.540;2023-02-18T15:09:17;97294.59;;;3.11;77.00
77043;BME280;65975;53.936;27.540;2023-02-18T15:11:46;97285.75;;;3.18;76.65
77043;BME280;65975;53.936;27.540;2023-02-18T15:14:18;97298.09;;;3.10;75.96
77043;BME280;65975;53.936;27.540;2023-02-18T15:16:46;97310.69;;;3.21;75.65
77043;BME280;65975;53.936;27.540;2023-02-18T15:19:18;97314.78;;;3.28;74.54
77043;BME280;65975;53.936;27.540;2023-02-18T15:21:47;97324.53;;;3.20;74.44
77043;BME280;65975;53.936;27.540;2023-02-18T15:24:30;97315.69;;;3.27;74.97
77043;BME280;65975;53.936;27.540;2023-02-18T15:27:00;97306.22;;;3.26;74.65
77043;BME280;65975;53.936;27.540;2023-02-18T15:29:31;97318.25;;;3.27;74.16
77043;BME280;65975;53.936;27.540;2023-02-18T15:31:58;97319.94;;;3.30;73.66
77043;BME280;65975;53.936;27.540;2023-02-18T15:36:58;97310.56;;;3.26;73.80
77043;BME280;65975;53.936;27.540;2023-02-18T15:39:24;97332.59;;;3.37;73.82
77043;BME280;65975;53.936;27.540;2023-02-18T15:41:57;97194.00;;;2.50;73.85
77043;BME280;65975;53.936;27.540;2023-02-18T15:44:28;97320.34;;;3.16;74.40
77043;BME280;65975;53.936;27.540;2023-02-18T15:46:54;97329.13;;;3.38;74.23
77043;BME280;65975;53.936;27.540;2023-02-18T15:49:24;97200.94;;;2.48;73.37
77043;BME280;65975;53.936;27.540;2023-02-18T15:51:54;97326.72;;;3.32;73.96